createdAt,value
2022-11-29T00:01:31.546Z,23.08
2022-11-29T00:04:09.389Z,22.02
2022-11-29T00:09:08.699Z,24.27
2022-11-29T00:11:55.375Z,24.35
2022-11-29T00:14:23.075Z,25.63
2022-11-29T00:16:51.833Z,22.05
2022-11-29T00:19:20.080Z,24.85
2022-11-29T00:21:46.600Z,21.92
2022-11-29T00:24:13.606Z,24.60
2022-11-29T00:26:40.266Z,29.10
2022-11-29T00:29:06.722Z,36.53
2022-11-29T00:31:33.716Z,29.25
2022-11-29T00:34:02.826Z,23.80
2022-11-29T00:36:31.232Z,28.05
2022-11-29T00:38:57.938Z,21.00
2022-11-29T00:41:24.556Z,22.95
2022-11-29T00:43:51.065Z,24.27
2022-11-29T00:46:17.693Z,26.40
2022-11-29T00:48:44.218Z,19.67
2022-11-29T00:51:11.002Z,25.30
2022-11-29T00:53:37.859Z,24.58
2022-11-29T00:56:06.782Z,22.50
2022-11-29T01:01:41.154Z,24.05
2022-11-29T01:06:35.850Z,21.13
2022-11-29T01:09:02.391Z,26.77
2022-11-29T01:11:29.717Z,23.60
2022-11-29T01:13:59.966Z,29.10
2022-11-29T01:16:31.899Z,23.95
2022-11-29T01:19:00.561Z,25.23
2022-11-29T01:21:27.199Z,30.27
2022-11-29T01:23:54.630Z,27.80
2022-11-29T01:26:24.726Z,29.13
2022-11-29T01:28:53.288Z,25.30
2022-11-29T01:31:26.479Z,30.60
2022-11-29T01:33:54.961Z,36.75
2022-11-29T01:36:21.601Z,29.85
2022-11-29T01:38:48.159Z,27.65
2022-11-29T01:41:19.578Z,34.00
2022-11-29T01:44:04.201Z,28.73
2022-11-29T01:46:36.644Z,28.33
2022-11-29T01:49:15.023Z,30.08
2022-11-29T01:51:55.896Z,31.42
2022-11-29T01:54:22.909Z,29.77
2022-11-29T01:56:51.428Z,29.47
2022-11-29T01:59:22.247Z,31.15
2022-11-29T02:01:49.017Z,33.08
2022-11-29T02:04:16.157Z,35.00
2022-11-29T02:06:44.394Z,37.73
2022-11-29T02:09:22.435Z,35.08
2022-11-29T02:12:10.460Z,43.15
2022-11-29T02:14:59.110Z,34.30
2022-11-29T02:17:47.780Z,36.90
2022-11-29T02:20:33.467Z,42.40
2022-11-29T02:23:26.398Z,35.45
2022-11-29T02:29:20.444Z,37.47
2022-11-29T02:31:56.791Z,39.58
2022-11-29T02:34:58.924Z,38.42
2022-11-29T02:37:49.862Z,42.58
2022-11-29T02:40:16.310Z,36.00
2022-11-29T02:43:10.303Z,37.45
2022-11-29T02:46:00.928Z,42.35
2022-11-29T02:48:33.588Z,43.83
2022-11-29T02:51:11.430Z,39.63
2022-11-29T02:56:13.072Z,40.30
2022-11-29T02:58:45.552Z,44.17
2022-11-29T03:01:25.890Z,38.10
2022-11-29T03:04:21.918Z,38.85
2022-11-29T03:07:07.429Z,37.83
2022-11-29T03:09:49.233Z,53.63
2022-11-29T03:12:23.406Z,49.25
2022-11-29T03:15:44.237Z,44.42
2022-11-29T03:18:28.379Z,48.97
2022-11-29T03:21:16.605Z,52.75
2022-11-29T03:24:09.266Z,46.00
2022-11-29T03:26:52.096Z,47.33
2022-11-29T03:29:21.168Z,58.45
2022-11-29T03:32:09.703Z,46.13
2022-11-29T03:34:57.807Z,50.83
2022-11-29T03:37:45.594Z,44.72
2022-11-29T03:40:17.059Z,65.60
2022-11-29T03:43:06.241Z,48.17
2022-11-29T03:45:59.680Z,52.78
2022-11-29T03:48:42.710Z,58.00
2022-11-29T03:51:18.077Z,59.65
2022-11-29T03:54:23.567Z,63.90
2022-11-29T03:56:51.912Z,61.40
2022-11-29T03:59:30.771Z,75.38
2022-11-29T04:02:29.619Z,67.13
2022-11-29T04:05:19.210Z,72.45
2022-11-29T04:08:27.051Z,79.57
2022-11-29T04:11:16.684Z,88.47
2022-11-29T04:14:02.363Z,80.80
2022-11-29T04:17:06.723Z,96.78
2022-11-29T04:19:51.960Z,104.75
2022-11-29T04:22:37.362Z,102.60
2022-11-29T04:25:12.209Z,107.35
2022-11-29T04:27:57.550Z,106.30
2022-11-29T04:30:25.960Z,105.78
2022-11-29T04:32:55.675Z,114.40
2022-11-29T04:35:43.248Z,99.75
2022-11-29T04:38:28.791Z,103.93
2022-11-29T04:41:21.245Z,105.88
2022-11-29T04:44:19.700Z,112.28
2022-11-29T04:47:18.203Z,113.93
2022-11-29T04:50:06.830Z,108.57
2022-11-29T04:52:52.511Z,105.75
2022-11-29T04:55:44.052Z,84.32
2022-11-29T04:58:38.492Z,115.03
2022-11-29T05:01:14.820Z,114.18
2022-11-29T05:04:14.385Z,115.72
2022-11-29T05:06:53.168Z,124.05
2022-11-29T05:09:34.918Z,125.35
2022-11-29T05:12:40.060Z,128.88
2022-11-29T05:15:49.943Z,118.03
2022-11-29T05:18:25.557Z,137.13
2022-11-29T05:21:18.829Z,150.35
2022-11-29T05:24:16.535Z,165.90
2022-11-29T05:26:49.650Z,155.93
2022-11-29T05:29:26.431Z,174.82
2022-11-29T05:32:12.240Z,153.18
2022-11-29T05:34:55.223Z,163.65
2022-11-29T05:37:45.488Z,169.82
2022-11-29T05:41:03.575Z,176.63
2022-11-29T05:43:30.619Z,176.82
2022-11-29T06:02:11.081Z,203.98
2022-11-29T06:05:04.142Z,210.82
2022-11-29T06:10:23.569Z,232.50
2022-11-29T06:13:00.387Z,233.40
2022-11-29T06:15:46.172Z,239.50
2022-11-29T06:18:37.399Z,234.98
2022-11-29T06:21:16.979Z,229.63
2022-11-29T06:24:11.156Z,231.32
2022-11-29T06:26:52.286Z,221.73
2022-11-29T06:29:22.576Z,231.00
2022-11-29T06:32:15.543Z,221.60
2022-11-29T06:35:03.070Z,220.32
2022-11-29T06:37:38.974Z,223.25
2022-11-29T06:40:10.916Z,217.23
2022-11-29T06:42:37.783Z,233.88
2022-11-29T06:45:07.633Z,236.98
2022-11-29T06:47:40.391Z,222.05
2022-11-29T06:50:13.269Z,224.57
2022-11-29T06:53:13.782Z,218.77
2022-11-29T06:56:00.655Z,214.73
2022-11-29T06:58:36.065Z,207.20
2022-11-29T07:01:31.968Z,186.65
2022-11-29T07:04:32.618Z,208.00
2022-11-29T07:07:00.669Z,199.85
2022-11-29T07:09:33.613Z,209.82
2022-11-29T07:12:00.739Z,196.43
2022-11-29T07:14:27.531Z,204.97
2022-11-29T07:17:05.335Z,188.93
2022-11-29T07:22:53.098Z,201.77
2022-11-29T07:25:37.923Z,205.32
2022-11-29T07:28:22.408Z,192.13
2022-11-29T07:33:51.096Z,189.20
2022-11-29T07:39:19.873Z,170.65
2022-11-29T07:42:14.877Z,163.27
2022-11-29T07:44:53.791Z,161.43
2022-11-29T07:47:20.249Z,156.27
2022-11-29T07:49:46.745Z,172.15
2022-11-29T07:52:16.174Z,157.25
2022-11-29T07:54:43.539Z,138.68
2022-11-29T07:57:10.319Z,167.07
2022-11-29T07:59:36.890Z,162.07
2022-11-29T08:02:08.780Z,145.27
2022-11-29T08:04:44.592Z,169.90
2022-11-29T08:07:11.405Z,156.82
2022-11-29T08:09:37.920Z,148.27
2022-11-29T08:12:04.879Z,147.60
2022-11-29T08:14:33.356Z,143.55
2022-11-29T08:16:59.854Z,147.40
2022-11-29T08:19:26.345Z,147.80
2022-11-29T08:21:53.371Z,145.73
2022-11-29T08:24:19.967Z,165.30
2022-11-29T08:26:46.884Z,123.80
2022-11-29T08:29:13.361Z,136.98
2022-11-29T08:31:39.904Z,141.00
2022-11-29T08:34:07.332Z,128.65
2022-11-29T08:36:33.926Z,83.68
2022-11-29T08:39:08.975Z,112.40
2022-11-29T08:41:37.546Z,131.02
2022-11-29T08:46:51.979Z,120.72
2022-11-29T08:49:18.675Z,127.13
2022-11-29T08:51:45.162Z,120.13
2022-11-29T08:54:11.663Z,116.95
2022-11-29T08:59:24.646Z,115.25
2022-11-29T09:01:51.313Z,115.28
2022-11-29T09:04:17.868Z,115.03
2022-11-29T09:06:44.604Z,109.68
2022-11-29T09:09:11.040Z,102.65
2022-11-29T09:11:37.582Z,106.57
2022-11-29T09:14:06.708Z,100.38
2022-11-29T09:16:36.029Z,104.43
2022-11-29T09:19:04.007Z,104.80
2022-11-29T09:24:02.393Z,97.78
2022-11-29T09:26:31.847Z,102.60
2022-11-29T09:29:01.305Z,102.38
2022-11-29T09:31:29.561Z,96.82
2022-11-29T09:33:56.914Z,99.70
2022-11-29T09:36:28.144Z,86.82
2022-11-29T09:38:55.455Z,96.95
2022-11-29T09:41:34.977Z,90.05
2022-11-29T09:44:26.289Z,88.70
2022-11-29T09:47:18.042Z,96.50
2022-11-29T09:49:59.861Z,87.85
2022-11-29T09:52:38.480Z,88.88
2022-11-29T09:55:32.992Z,89.50
2022-11-29T09:58:01.558Z,92.53
2022-11-29T10:00:28.775Z,86.20
2022-11-29T10:03:02.415Z,90.63
2022-11-29T10:05:47.443Z,85.78
2022-11-29T10:08:36.796Z,84.35
2022-11-29T10:11:29.443Z,77.72
2022-11-29T10:14:15.335Z,84.45
2022-11-29T10:16:46.945Z,82.95
2022-11-29T10:19:33.342Z,69.38
2022-11-29T10:22:28.087Z,74.38
2022-11-29T10:24:58.743Z,89.43
2022-11-29T10:27:29.497Z,83.53
2022-11-29T10:29:57.341Z,83.88
2022-11-29T10:32:25.724Z,91.20
2022-11-29T10:34:52.178Z,92.03
2022-11-29T10:37:23.371Z,96.85
2022-11-29T10:39:54.225Z,91.93
2022-11-29T10:42:43.131Z,88.00
2022-11-29T10:45:37.557Z,82.35
2022-11-29T10:48:10.947Z,97.75
2022-11-29T10:50:37.663Z,88.25
2022-11-29T10:53:19.733Z,88.28
2022-11-29T10:56:03.157Z,84.70
2022-11-29T10:58:31.062Z,76.57
2022-11-29T11:03:43.239Z,69.30
2022-11-29T11:06:19.184Z,71.97
2022-11-29T11:08:52.682Z,80.50
2022-11-29T11:11:30.882Z,74.82
2022-11-29T11:14:03.291Z,74.70
2022-11-29T11:16:34.286Z,71.82
2022-11-29T11:19:33.543Z,73.28
2022-11-29T11:22:04.597Z,77.47
2022-11-29T11:24:40.964Z,75.10
2022-11-29T11:27:07.831Z,63.25
2022-11-29T11:29:40.973Z,60.10
2022-11-29T11:32:27.800Z,53.13
2022-11-29T11:34:58.049Z,67.77
2022-11-29T11:37:29.851Z,62.17
2022-11-29T11:40:18.900Z,64.88
2022-11-29T11:42:45.688Z,73.80
2022-11-29T11:45:12.581Z,70.32
2022-11-29T11:47:44.956Z,65.43
2022-11-29T11:50:27.634Z,72.18
2022-11-29T11:52:59.733Z,66.45
2022-11-29T11:55:37.024Z,75.53
2022-11-29T11:58:16.186Z,72.40
2022-11-29T12:01:06.746Z,70.05
2022-11-29T12:03:50.869Z,77.88
2022-11-29T12:06:28.797Z,72.82
2022-11-29T12:09:25.273Z,74.63
2022-11-29T12:12:13.584Z,82.38
2022-11-29T12:15:02.548Z,71.70
2022-11-29T12:17:31.735Z,74.00
2022-11-29T12:20:07.215Z,80.35
2022-11-29T12:22:50.761Z,79.20
2022-11-29T12:25:22.699Z,71.88
2022-11-29T12:27:50.750Z,74.55
2022-11-29T12:30:19.218Z,73.25
2022-11-29T12:33:06.119Z,74.35
2022-11-29T12:35:44.609Z,79.50
2022-11-29T12:38:43.939Z,80.97
2022-11-29T12:41:33.662Z,71.72
2022-11-29T12:44:29.586Z,71.03
2022-11-29T12:47:34.666Z,69.55
2022-11-29T12:50:24.376Z,80.87
2022-11-29T12:53:11.206Z,79.00
2022-11-29T12:56:04.166Z,74.33
2022-11-29T12:58:45.458Z,77.80
2022-11-29T13:01:41.028Z,69.75
2022-11-29T13:04:13.373Z,68.63
2022-11-29T13:07:24.240Z,64.97
2022-11-29T13:10:03.337Z,67.10
2022-11-29T13:12:50.756Z,58.03
2022-11-29T13:15:23.805Z,62.15
2022-11-29T13:18:01.097Z,54.67
2022-11-29T13:20:34.357Z,68.78
2022-11-29T13:23:39.158Z,66.68
2022-11-29T13:26:12.214Z,63.53
2022-11-29T13:28:41.276Z,67.35
2022-11-29T13:31:28.215Z,75.15
2022-11-29T13:34:16.522Z,68.05
2022-11-29T13:37:01.997Z,75.20
2022-11-29T13:39:52.394Z,75.68
2022-11-29T13:42:45.306Z,73.13
2022-11-29T13:45:37.547Z,79.90
2022-11-29T13:48:27.822Z,75.30
2022-11-29T13:50:56.645Z,76.28
2022-11-29T13:53:48.184Z,80.10
2022-11-29T13:56:42.626Z,82.82
2022-11-29T13:59:27.711Z,69.35
2022-11-29T14:01:54.450Z,80.82
2022-11-29T14:04:31.337Z,80.95
2022-11-29T14:07:08.831Z,75.93
2022-11-29T14:09:35.275Z,77.40
2022-11-29T14:12:17.147Z,88.78
2022-11-29T14:15:04.315Z,86.63
2022-11-29T14:17:49.501Z,84.63
2022-11-29T14:20:25.322Z,79.35
2022-11-29T14:23:04.407Z,79.45
2022-11-29T14:25:51.212Z,79.38
2022-11-29T14:30:46.457Z,82.93
2022-11-29T14:35:50.925Z,83.25
2022-11-29T14:38:31.131Z,77.65
2022-11-29T14:41:12.503Z,86.28
2022-11-29T14:43:41.682Z,83.13
2022-11-29T14:46:14.203Z,86.22
2022-11-29T14:49:02.756Z,88.22
2022-11-29T14:51:31.471Z,80.63
2022-11-29T14:54:16.395Z,85.78
2022-11-29T14:56:45.038Z,77.78
2022-11-29T14:59:49.400Z,82.80
2022-11-29T15:02:38.633Z,84.97
2022-11-29T15:05:24.508Z,76.88
2022-11-29T15:08:16.389Z,88.13
2022-11-29T15:10:55.831Z,73.95
2022-11-29T15:13:33.430Z,81.72
2022-11-29T15:16:12.951Z,73.88
2022-11-29T15:19:14.306Z,81.05
2022-11-29T15:22:03.754Z,78.35
2022-11-29T15:24:30.391Z,82.20
2022-11-29T15:26:59.866Z,78.10
2022-11-29T15:29:27.791Z,75.15
2022-11-29T15:34:31.515Z,77.50
2022-11-29T15:36:59.674Z,81.75
2022-11-29T15:39:34.814Z,88.03
2022-11-29T15:42:12.430Z,88.75
2022-11-29T15:44:46.106Z,84.57
2022-11-29T15:47:24.401Z,76.60
2022-11-29T15:49:52.466Z,85.60
2022-11-29T15:52:39.296Z,81.50
2022-11-29T15:55:10.658Z,78.97
2022-11-29T15:57:44.899Z,78.07
2022-11-29T16:00:20.386Z,80.18
2022-11-29T16:02:51.839Z,72.20
2022-11-29T16:05:25.463Z,76.03
2022-11-29T16:07:56.473Z,69.22
2022-11-29T16:10:31.933Z,76.15
2022-11-29T16:13:27.015Z,77.93
2022-11-29T16:16:15.573Z,71.32
2022-11-29T16:18:44.827Z,81.50
2022-11-29T16:21:24.930Z,80.57
2022-11-29T16:23:51.767Z,72.82
2022-11-29T16:26:30.070Z,77.50
2022-11-29T16:28:59.682Z,78.15
2022-11-29T16:31:37.940Z,79.82
2022-11-29T16:34:10.564Z,82.25
2022-11-29T16:36:37.165Z,76.95
2022-11-29T16:39:24.288Z,80.57
2022-11-29T16:42:19.402Z,82.28
2022-11-29T16:44:52.999Z,84.45
2022-11-29T16:47:25.326Z,87.93
2022-11-29T16:50:15.410Z,81.45
2022-11-29T16:52:42.396Z,75.72
2022-11-29T16:55:09.001Z,81.43
2022-11-29T16:57:35.895Z,85.43
2022-11-29T17:00:09.434Z,76.22
2022-11-29T17:02:36.058Z,76.00
2022-11-29T17:05:02.692Z,69.45
2022-11-29T17:07:33.298Z,73.47
2022-11-29T17:10:00.032Z,75.47
2022-11-29T17:12:26.533Z,80.50
2022-11-29T17:14:53.105Z,78.15
2022-11-29T17:17:19.945Z,78.53
2022-11-29T17:19:46.611Z,90.68
2022-11-29T17:22:13.185Z,93.53
2022-11-29T17:24:46.246Z,79.53
2022-11-29T17:27:14.660Z,76.68
2022-11-29T17:29:41.189Z,72.72
2022-11-29T17:32:07.709Z,75.50
2022-11-29T17:34:34.719Z,78.13
2022-11-29T17:37:01.425Z,77.00
2022-11-29T17:39:27.911Z,85.55
2022-11-29T17:41:54.626Z,90.55
2022-11-29T17:44:21.192Z,80.40
2022-11-29T17:46:47.772Z,74.63
2022-11-29T17:49:14.565Z,82.38
2022-11-29T17:51:56.684Z,79.07
2022-11-29T17:54:23.242Z,76.53
2022-11-29T17:56:50.594Z,93.30
2022-11-29T17:59:17.261Z,84.45
2022-11-29T18:01:44.723Z,82.65
2022-11-29T18:04:11.440Z,92.28
2022-11-29T18:06:40.164Z,80.38
2022-11-29T18:09:08.958Z,86.63
2022-11-29T18:11:48.136Z,84.70
2022-11-29T18:14:19.193Z,81.38
2022-11-29T18:16:45.992Z,90.30
2022-11-29T18:19:15.105Z,84.93
2022-11-29T18:21:41.761Z,89.32
2022-11-29T18:24:09.070Z,93.60
2022-11-29T18:26:37.046Z,76.03
2022-11-29T18:31:33.671Z,81.05
2022-11-29T18:34:02.481Z,91.88
2022-11-29T18:36:32.034Z,73.78
2022-11-29T18:39:05.523Z,80.88
2022-11-29T18:41:32.308Z,79.20
2022-11-29T18:44:01.761Z,79.25
2022-11-29T18:46:32.477Z,73.85
2022-11-29T18:49:01.075Z,78.38
2022-11-29T18:51:29.336Z,85.63
2022-11-29T18:53:57.216Z,75.65
2022-11-29T18:58:42.075Z,89.20
2022-11-29T19:01:13.670Z,91.07
2022-11-29T19:03:42.588Z,96.70
2022-11-29T19:06:11.875Z,95.80
2022-11-29T19:08:38.692Z,100.85
2022-11-29T19:11:07.048Z,87.65
2022-11-29T19:13:34.165Z,84.95
2022-11-29T19:16:01.688Z,92.17
2022-11-29T19:18:29.118Z,105.40
2022-11-29T19:21:08.877Z,96.82
2022-11-29T19:23:35.446Z,112.57
2022-11-29T19:26:12.945Z,96.55
2022-11-29T19:28:42.549Z,98.50
2022-11-29T19:31:10.642Z,98.45
2022-11-29T19:33:39.308Z,96.70
2022-11-29T19:36:13.468Z,95.72
2022-11-29T19:38:40.678Z,96.45
2022-11-29T19:41:11.772Z,84.93
2022-11-29T19:43:38.841Z,96.43
2022-11-29T19:46:33.383Z,98.63
2022-11-29T19:57:02.692Z,82.10
2022-11-29T19:59:29.438Z,78.15
2022-11-29T20:01:55.969Z,78.50
2022-11-29T20:17:45.860Z,75.88
2022-11-29T20:36:54.566Z,69.97
2022-11-29T20:39:21.489Z,70.10
2022-11-29T20:41:53.862Z,70.78
2022-11-29T20:44:24.299Z,73.30
2022-11-29T20:46:50.956Z,69.85
2022-11-29T20:49:25.556Z,74.03
2022-11-29T20:52:03.028Z,85.85
2022-11-29T20:57:09.921Z,59.90
2022-11-29T21:02:16.754Z,67.68
2022-11-29T21:04:43.369Z,68.60
2022-11-29T21:07:09.901Z,78.50
2022-11-29T21:09:36.367Z,69.57
2022-11-29T21:12:03.173Z,66.45
2022-11-29T21:14:29.973Z,69.30
2022-11-29T21:16:56.751Z,67.70
2022-11-29T21:19:25.928Z,71.57
2022-11-29T21:22:04.970Z,69.32
2022-11-29T21:24:31.389Z,76.10
2022-11-29T21:26:57.995Z,71.15
2022-11-29T21:29:24.722Z,71.78
2022-11-29T21:31:53.754Z,72.57
2022-11-29T21:34:20.897Z,75.95
2022-11-29T21:36:58.809Z,76.83
2022-11-29T21:39:34.845Z,74.32
2022-11-29T21:42:02.799Z,85.50
2022-11-29T21:46:58.302Z,76.60
2022-11-29T21:49:25.191Z,75.28
2022-11-29T21:51:57.589Z,81.18
2022-11-29T21:54:24.073Z,86.50
2022-11-29T21:56:50.579Z,88.00
2022-11-29T21:59:17.230Z,89.65
2022-11-29T22:01:43.959Z,86.07
2022-11-29T22:04:10.709Z,93.13
2022-11-29T22:06:37.316Z,96.97
2022-11-29T22:09:04.892Z,99.35
2022-11-29T22:11:34.147Z,97.30
2022-11-29T22:14:23.669Z,101.10
2022-11-29T22:16:59.864Z,93.78
2022-11-29T22:19:50.718Z,92.10
2022-11-29T22:22:17.463Z,99.65
2022-11-29T22:24:48.080Z,103.88
2022-11-29T22:27:20.235Z,86.63
2022-11-29T22:29:47.186Z,87.25
2022-11-29T22:32:13.844Z,89.35
2022-11-29T22:34:40.416Z,95.72
2022-11-29T22:37:17.576Z,91.93
2022-11-29T22:42:25.380Z,86.97
2022-11-29T22:47:33.627Z,91.20
2022-11-29T22:50:00.903Z,92.60
2022-11-29T22:52:27.590Z,96.40
2022-11-29T22:55:04.232Z,100.90
2022-11-29T22:57:34.720Z,100.07
2022-11-29T23:00:01.842Z,94.47
2022-11-29T23:02:31.729Z,112.77
2022-11-29T23:05:04.023Z,97.10
2022-11-29T23:07:31.576Z,97.55
2022-11-29T23:10:04.728Z,107.20
2022-11-29T23:12:33.409Z,101.78
2022-11-29T23:15:05.109Z,95.60
2022-11-29T23:17:31.794Z,98.82
2022-11-29T23:20:08.400Z,106.43
2022-11-29T23:22:39.292Z,95.55
2022-11-29T23:25:09.889Z,111.63
2022-11-29T23:27:36.351Z,107.03
2022-11-29T23:30:04.381Z,107.38
2022-11-29T23:32:30.898Z,101.30
2022-11-29T23:34:58.523Z,99.85
2022-11-29T23:37:26.044Z,104.60
2022-11-29T23:39:52.535Z,107.68
2022-11-29T23:42:19.037Z,99.38
2022-11-29T23:44:45.720Z,103.53
2022-11-29T23:47:12.702Z,110.78
2022-11-29T23:49:39.929Z,107.53
2022-11-29T23:52:06.466Z,121.97
2022-11-29T23:54:32.923Z,120.93
2022-11-29T23:56:59.454Z,113.15
2022-11-29T23:59:27.201Z,114.57
